Time;durP1;ratioP1;P1;durP2;ratioP2;P2;SDS_P1;SDS_P2;PMS_P1;PMS_P2;Temp;Humidity;BMP_temperature;BMP_pressure;BME280_temperature;BME280_humidity;BME280_pressure;Samples;Min_cycle;Max_cycle;Signal;HPM_P1;HPM_P2
2022/01/31 00:01:32;;;;;;;0.98;0.40;;;20.20;55.60;;;;;;5074667;28;20035;-70
2022/01/31 00:03:58;;;;;;;1.27;0.50;;;20.20;55.60;;;;;;5075754;28;20025;-70
2022/01/31 00:06:24;;;;;;;0.32;0.32;;;20.20;55.60;;;;;;5079044;28;20115;-69
2022/01/31 00:08:50;;;;;;;1.45;0.60;;;20.20;55.60;;;;;;5095888;28;20091;-70
2022/01/31 00:11:16;;;;;;;0.95;0.52;;;20.20;55.60;;;;;;5094915;28;20020;-70
2022/01/31 00:13:45;;;;;;;0.55;0.50;;;20.20;55.60;;;;;;5077817;28;20061;-69
2022/01/31 00:16:16;;;;;;;0.65;0.50;;;20.20;55.60;;;;;;5095950;28;20025;-69
2022/01/31 00:18:42;;;;;;;0.85;0.40;;;20.20;55.60;;;;;;5094850;28;20069;-69
2022/01/31 00:21:08;;;;;;;0.70;0.50;;;20.20;55.60;;;;;;5094311;28;20024;-69
2022/01/31 00:23:33;;;;;;;0.80;0.40;;;20.20;55.60;;;;;;5094762;28;20016;-69
2022/01/31 00:25:59;;;;;;;1.35;0.55;;;20.20;55.60;;;;;;5094655;28;20028;-69
2022/01/31 00:28:24;;;;;;;0.40;0.40;;;20.20;55.60;;;;;;5094163;28;20036;-69
2022/01/31 00:30:50;;;;;;;0.77;0.50;;;20.20;55.60;;;;;;5094597;28;20026;-69
2022/01/31 00:33:16;;;;;;;1.25;0.47;;;20.20;55.60;;;;;;5094514;28;20046;-70
2022/01/31 00:35:41;;;;;;;2.60;0.60;;;20.20;55.60;;;;;;5095247;28;20032;-70
2022/01/31 00:38:07;;;;;;;1.20;0.52;;;20.20;55.60;;;;;;5095551;28;20030;-69
2022/01/31 00:40:34;;;;;;;1.65;0.40;;;20.20;55.60;;;;;;5095288;28;20387;-69
2022/01/31 00:43:00;;;;;;;1.60;0.50;;;20.20;55.60;;;;;;5094172;28;20041;-69
2022/01/31 00:45:28;;;;;;;1.13;0.40;;;20.20;55.70;;;;;;5095655;28;20024;-69
2022/01/31 00:48:02;;;;;;;0.93;0.55;;;20.20;55.70;;;;;;5095414;28;20352;-69
2022/01/31 00:50:39;;;;;;;0.95;0.30;;;20.20;55.70;;;;;;5093863;28;20032;-69
2022/01/31 00:53:04;;;;;;;0.95;0.50;;;20.20;55.70;;;;;;5093947;28;20028;-69
2022/01/31 00:55:30;;;;;;;0.77;0.30;;;20.20;55.80;;;;;;5093909;28;20028;-69
2022/01/31 00:57:56;;;;;;;0.65;0.40;;;20.20;55.80;;;;;;5094523;28;20673;-69
2022/01/31 01:00:21;;;;;;;1.05;0.45;;;20.10;55.70;;;;;;5089973;28;20039;-69
2022/01/31 01:02:47;;;;;;;1.35;0.63;;;20.20;55.80;;;;;;5081322;28;20016;-69
2022/01/31 01:05:13;;;;;;;1.88;0.52;;;20.10;55.80;;;;;;5083972;28;20029;-69
2022/01/31 01:07:39;;;;;;;1.38;0.57;;;20.20;55.80;;;;;;5088046;28;20580;-69
2022/01/31 01:10:05;;;;;;;1.63;0.47;;;20.20;55.90;;;;;;5084142;28;20024;-69
2022/01/31 01:12:31;;;;;;;1.67;0.50;;;20.20;55.90;;;;;;5089663;28;20013;-69
2022/01/31 01:14:57;;;;;;;0.98;0.45;;;20.20;55.90;;;;;;5089285;28;20028;-69
2022/01/31 01:17:23;;;;;;;1.42;0.40;;;20.10;55.80;;;;;;5074761;28;20025;-69
2022/01/31 01:19:49;;;;;;;1.23;0.50;;;20.10;55.80;;;;;;5078437;28;20025;-69
2022/01/31 01:22:14;;;;;;;1.45;0.40;;;20.10;55.90;;;;;;5077417;28;20025;-69
2022/01/31 01:24:40;;;;;;;1.40;0.60;;;20.20;55.90;;;;;;5088160;28;20421;-69
2022/01/31 01:27:08;;;;;;;1.52;0.65;;;20.20;55.90;;;;;;5081375;28;20027;-69
2022/01/31 01:29:33;;;;;;;0.93;0.50;;;20.20;55.90;;;;;;5080369;28;20051;-69
2022/01/31 01:31:59;;;;;;;0.52;0.40;;;20.20;55.90;;;;;;5073261;28;20028;-69
2022/01/31 01:34:26;;;;;;;1.52;0.60;;;20.10;55.90;;;;;;5088715;28;20028;-70
2022/01/31 01:36:53;;;;;;;1.67;0.75;;;20.10;55.90;;;;;;5091009;28;20027;-70
2022/01/31 01:39:19;;;;;;;0.80;0.50;;;20.10;56.00;;;;;;5090525;28;20024;-70
2022/01/31 01:41:44;;;;;;;0.95;0.50;;;20.10;55.90;;;;;;5090988;28;20020;-69
2022/01/31 01:44:10;;;;;;;0.75;0.60;;;20.20;56.00;;;;;;5091305;28;20103;-70
2022/01/31 01:46:36;;;;;;;1.00;0.43;;;20.20;57.00;;;;;;5073235;28;20103;-70
2022/01/31 01:49:01;;;;;;;1.05;0.68;;;20.10;56.00;;;;;;5091004;28;20056;-70
2022/01/31 01:51:27;;;;;;;1.23;0.80;;;20.20;56.00;;;;;;5092027;28;20020;-70
2022/01/31 01:53:53;;;;;;;1.13;0.50;;;20.10;56.00;;;;;;5091915;28;20375;-70
2022/01/31 01:56:18;;;;;;;1.60;0.60;;;20.10;56.00;;;;;;5092284;28;20020;-70
2022/01/31 01:58:44;;;;;;;2.20;0.60;;;20.10;56.00;;;;;;5085717;28;20032;-69
2022/01/31 02:01:11;;;;;;;1.20;0.50;;;20.10;56.00;;;;;;5055209;28;20020;-69
2022/01/31 02:03:38;;;;;;;0.98;0.40;;;20.10;56.00;;;;;;5070259;28;20029;-70
2022/01/31 02:06:05;;;;;;;1.13;0.45;;;20.10;56.00;;;;;;5073837;28;20013;-69
2022/01/31 02:08:39;;;;;;;1.08;0.40;;;20.10;56.00;;;;;;5092268;28;20063;-69
2022/01/31 02:11:09;;;;;;;1.65;0.50;;;20.10;56.00;;;;;;5091741;28;20109;-69
2022/01/31 02:13:36;;;;;;;2.17;0.70;;;20.10;56.00;;;;;;5092085;28;20032;-69
2022/01/31 02:16:01;;;;;;;1.77;0.50;;;20.10;56.00;;;;;;5092007;28;20024;-69
2022/01/31 02:18:29;;;;;;;0.88;0.40;;;20.10;56.00;;;;;;5091375;28;20414;-70
2022/01/31 02:20:54;;;;;;;1.08;0.50;;;20.10;56.10;;;;;;5092039;28;20073;-70
2022/01/31 02:23:20;;;;;;;0.70;0.50;;;20.10;56.00;;;;;;5087777;28;20459;-70
2022/01/31 02:26:03;;;;;;;1.33;0.50;;;20.10;56.10;;;;;;5090123;28;20016;-70
2022/01/31 02:28:31;;;;;;;1.27;0.65;;;20.10;56.00;;;;;;5072726;28;20063;-69
2022/01/31 02:30:57;;;;;;;1.85;0.60;;;20.10;56.10;;;;;;5090278;28;20020;-70
2022/01/31 02:33:23;;;;;;;1.15;0.50;;;20.10;56.10;;;;;;5087942;28;20070;-69
2022/01/31 02:35:49;;;;;;;1.15;0.45;;;20.10;56.10;;;;;;5091091;28;20431;-70
2022/01/31 02:38:15;;;;;;;1.15;0.57;;;20.10;56.20;;;;;;5074615;28;20027;-70
2022/01/31 02:40:41;;;;;;;1.30;0.50;;;20.10;56.10;;;;;;5090530;28;20016;-69
2022/01/31 02:43:07;;;;;;;1.05;0.52;;;20.10;56.10;;;;;;5074278;28;20035;-70
2022/01/31 02:45:32;;;;;;;1.15;0.43;;;20.10;56.10;;;;;;5091202;28;20020;-69
2022/01/31 02:48:00;;;;;;;0.98;0.45;;;20.10;56.10;;;;;;5090953;28;20036;-69
2022/01/31 02:50:26;;;;;;;1.63;0.63;;;20.10;56.10;;;;;;5092184;28;20026;-70
2022/01/31 02:53:09;;;;;;;2.40;0.80;;;20.10;56.10;;;;;;5091193;28;20118;-69
2022/01/31 02:55:34;;;;;;;1.52;0.50;;;20.10;56.20;;;;;;5076660;28;20463;-69
2022/01/31 02:58:00;;;;;;;1.77;0.52;;;20.10;56.10;;;;;;5091852;28;20111;-69
2022/01/31 03:00:26;;;;;;;1.73;0.60;;;20.10;56.20;;;;;;5071961;28;20020;-69
2022/01/31 03:02:52;;;;;;;0.90;0.52;;;20.10;56.20;;;;;;5070840;28;20027;-69
2022/01/31 03:05:17;;;;;;;1.30;0.60;;;20.10;56.20;;;;;;5072083;28;20020;-69
2022/01/31 03:07:43;;;;;;;1.27;0.52;;;20.10;56.20;;;;;;5086623;28;20551;-69
2022/01/31 03:10:09;;;;;;;1.38;0.50;;;20.10;56.20;;;;;;5092574;28;20024;-69
2022/01/31 03:12:34;;;;;;;2.03;0.57;;;20.10;56.20;;;;;;5091170;28;20035;-69
2022/01/31 03:15:00;;;;;;;1.23;0.63;;;20.10;56.20;;;;;;5090901;28;20020;-69
2022/01/31 03:17:25;;;;;;;1.45;0.70;;;20.10;56.20;;;;;;5092022;28;20028;-69
2022/01/31 03:19:54;;;;;;;3.13;0.65;;;20.10;56.20;;;;;;5091069;28;20077;-69
2022/01/31 03:22:20;;;;;;;1.40;0.98;;;20.10;56.20;;;;;;5092312;28;20047;-70
2022/01/31 03:24:46;;;;;;;2.13;0.80;;;20.10;56.20;;;;;;5096230;28;20008;-69
2022/01/31 03:27:11;;;;;;;2.67;0.80;;;20.10;56.30;;;;;;5095300;28;20490;-69
2022/01/31 03:29:37;;;;;;;2.05;0.68;;;20.10;56.20;;;;;;5094591;28;20055;-69
2022/01/31 03:32:03;;;;;;;1.77;0.85;;;20.10;56.20;;;;;;5094960;28;20043;-69
2022/01/31 03:34:29;;;;;;;1.60;0.90;;;20.00;56.10;;;;;;5094906;28;20023;-69
2022/01/31 03:36:54;;;;;;;1.38;0.70;;;20.00;56.10;;;;;;5094955;28;20032;-69
2022/01/31 03:39:20;;;;;;;0.80;0.50;;;20.10;56.30;;;;;;5096235;28;20394;-69
2022/01/31 03:41:46;;;;;;;2.55;0.65;;;20.00;56.20;;;;;;5095910;28;20470;-69
2022/01/31 03:44:11;;;;;;;1.45;0.65;;;20.00;56.20;;;;;;5095731;28;20016;-69
2022/01/31 03:46:38;;;;;;;1.67;0.55;;;20.00;56.20;;;;;;5095967;28;20085;-69
2022/01/31 03:49:04;;;;;;;1.27;0.60;;;20.00;56.30;;;;;;5094744;28;20016;-70
2022/01/31 03:51:29;;;;;;;1.52;0.63;;;20.10;56.30;;;;;;5096077;28;20103;-70
2022/01/31 03:53:55;;;;;;;2.25;0.82;;;20.00;56.20;;;;;;5095873;28;20474;-70
2022/01/31 03:56:21;;;;;;;2.20;0.80;;;20.10;56.30;;;;;;5094640;28;20020;-70
2022/01/31 03:58:46;;;;;;;1.70;0.90;;;20.00;56.20;;;;;;5088243;28;20046;-69
2022/01/31 04:01:12;;;;;;;1.52;0.60;;;20.00;56.20;;;;;;5075469;28;20040;-70
2022/01/31 04:03:37;;;;;;;1.33;0.60;;;20.00;56.30;;;;;;5075313;28;20475;-69
2022/01/31 04:06:03;;;;;;;2.90;0.85;;;20.00;56.30;;;;;;5075933;28;20075;-70
2022/01/31 04:08:29;;;;;;;2.22;0.75;;;20.10;56.30;;;;;;5095319;28;20389;-69
2022/01/31 04:10:54;;;;;;;2.88;1.00;;;20.10;56.30;;;;;;5095569;28;20028;-69
2022/01/31 04:13:20;;;;;;;2.55;0.80;;;20.00;56.20;;;;;;5094049;28;20020;-69
2022/01/31 04:15:46;;;;;;;3.50;0.90;;;20.00;56.20;;;;;;5094283;28;20031;-69
2022/01/31 04:18:11;;;;;;;2.28;0.63;;;20.00;56.30;;;;;;5095395;28;20028;-69
2022/01/31 04:20:37;;;;;;;3.15;1.00;;;20.00;56.20;;;;;;5094016;28;20436;-70
2022/01/31 04:23:12;;;;;;;2.47;0.75;;;20.00;56.20;;;;;;5095407;28;20035;-69
2022/01/31 04:28:22;;;;;;;2.42;0.93;;;20.00;56.30;;;;;;5094946;28;20024;-70
2022/01/31 04:31:00;;;;;;;1.23;0.70;;;20.00;56.30;;;;;;5094129;28;20494;-69
2022/01/31 04:33:27;;;;;;;1.40;0.75;;;20.00;56.30;;;;;;5094021;28;20034;-69
2022/01/31 04:35:53;;;;;;;1.50;0.80;;;20.00;56.30;;;;;;5093702;28;20043;-70
2022/01/31 04:38:19;;;;;;;1.60;0.70;;;20.00;56.30;;;;;;5093962;28;20028;-69
2022/01/31 04:40:45;;;;;;;2.42;0.80;;;20.00;56.30;;;;;;5093702;28;20028;-70
2022/01/31 04:43:10;;;;;;;2.72;0.60;;;20.00;56.40;;;;;;5093545;28;20103;-69
2022/01/31 04:45:36;;;;;;;1.50;0.70;;;20.00;56.30;;;;;;5093679;28;20032;-69
2022/01/31 04:48:02;;;;;;;1.10;0.50;;;20.00;56.30;;;;;;5093813;28;20031;-70
2022/01/31 04:50:27;;;;;;;2.17;0.80;;;20.00;56.40;;;;;;5094620;28;20032;-69
2022/01/31 04:52:53;;;;;;;1.15;0.68;;;20.00;56.40;;;;;;5093508;28;20054;-69
2022/01/31 04:55:18;;;;;;;1.75;0.70;;;20.00;56.30;;;;;;5094681;28;20111;-69
2022/01/31 04:57:44;;;;;;;1.38;0.60;;;20.00;56.30;;;;;;5092882;28;20020;-69
2022/01/31 05:00:10;;;;;;;2.55;0.70;;;20.00;56.40;;;;;;5074857;28;20028;-69
2022/01/31 05:02:36;;;;;;;1.25;0.47;;;20.00;56.30;;;;;;5073018;28;20091;-69
2022/01/31 05:05:02;;;;;;;2.70;0.73;;;20.00;56.40;;;;;;5072930;28;20178;-69
2022/01/31 05:07:28;;;;;;;2.40;1.20;;;20.00;56.40;;;;;;5086477;28;20031;-69
2022/01/31 05:09:54;;;;;;;3.38;0.80;;;20.00;56.30;;;;;;5093233;28;20020;-69
2022/01/31 05:12:19;;;;;;;2.72;1.00;;;20.00;56.30;;;;;;5093922;28;20028;-69
2022/01/31 05:14:45;;;;;;;1.63;0.70;;;20.00;56.40;;;;;;5093167;28;20024;-69
2022/01/31 05:17:10;;;;;;;1.55;0.57;;;20.00;56.30;;;;;;5094117;28;20486;-69
2022/01/31 05:19:36;;;;;;;2.95;0.77;;;20.00;56.30;;;;;;5094069;28;20058;-70
2022/01/31 05:22:02;;;;;;;2.85;0.90;;;20.00;56.30;;;;;;5093102;28;20028;-70
2022/01/31 05:24:28;;;;;;;1.52;0.75;;;20.00;56.30;;;;;;5092891;28;20020;-69
2022/01/31 05:26:53;;;;;;;2.30;0.80;;;20.00;56.30;;;;;;5092592;28;20020;-70
2022/01/31 05:29:20;;;;;;;3.40;0.80;;;20.00;56.30;;;;;;5093861;28;20047;-69
2022/01/31 05:31:46;;;;;;;1.65;0.70;;;20.00;56.30;;;;;;5093725;28;20043;-70
2022/01/31 05:34:12;;;;;;;1.77;0.70;;;20.00;56.40;;;;;;5092901;28;20028;-69
2022/01/31 05:36:39;;;;;;;4.55;0.90;;;20.00;56.40;;;;;;5092505;28;20132;-69
2022/01/31 05:39:04;;;;;;;2.05;1.08;;;20.00;56.40;;;;;;5092644;28;20105;-69
2022/01/31 05:41:30;;;;;;;1.25;0.60;;;20.00;56.30;;;;;;5092320;28;20466;-69
2022/01/31 05:43:55;;;;;;;0.95;0.70;;;20.00;56.40;;;;;;5093656;28;20067;-69
2022/01/31 05:46:21;;;;;;;2.58;0.93;;;20.00;56.40;;;;;;5092217;28;20048;-69
2022/01/31 05:48:47;;;;;;;1.30;0.63;;;20.00;56.40;;;;;;5092336;28;20035;-69
2022/01/31 05:51:17;;;;;;;1.73;0.52;;;20.00;56.40;;;;;;5092408;28;20051;-70
2022/01/31 05:53:43;;;;;;;2.05;0.60;;;20.00;56.40;;;;;;5092264;28;20035;-69
2022/01/31 05:56:10;;;;;;;1.92;0.73;;;20.00;56.30;;;;;;5075209;28;20490;-69
2022/01/31 05:58:36;;;;;;;1.45;0.70;;;20.00;56.30;;;;;;5086525;28;20501;-69
2022/01/31 06:01:01;;;;;;;2.80;0.80;;;20.00;56.40;;;;;;5055510;28;20102;-69
2022/01/31 06:03:27;;;;;;;1.40;0.65;;;20.00;56.40;;;;;;5071975;28;20024;-70
2022/01/31 06:05:53;;;;;;;3.33;0.95;;;20.00;56.40;;;;;;5071966;28;20070;-69
2022/01/31 06:08:18;;;;;;;1.10;0.70;;;20.00;56.30;;;;;;5093375;28;20024;-69
2022/01/31 06:10:46;;;;;;;2.50;0.90;;;19.90;56.30;;;;;;5092860;28;20077;-69
2022/01/31 06:13:11;;;;;;;1.60;0.70;;;19.90;56.40;;;;;;5093213;28;20024;-69
2022/01/31 06:15:37;;;;;;;1.50;0.77;;;20.00;56.40;;;;;;5093138;28;20379;-69
2022/01/31 06:18:03;;;;;;;2.75;0.70;;;20.00;56.40;;;;;;5091877;28;20060;-69
2022/01/31 06:20:28;;;;;;;2.75;0.70;;;20.00;56.40;;;;;;5091986;28;20025;-69
2022/01/31 06:22:54;;;;;;;1.15;0.70;;;20.00;56.40;;;;;;5091796;28;20474;-69
2022/01/31 06:25:20;;;;;;;1.58;0.80;;;20.00;56.40;;;;;;5091474;28;20066;-69
2022/01/31 06:27:46;;;;;;;1.98;0.70;;;20.00;56.40;;;;;;5092888;28;20033;-69
2022/01/31 06:30:11;;;;;;;2.08;0.75;;;19.90;56.30;;;;;;5091774;28;20055;-69
2022/01/31 06:32:37;;;;;;;1.48;0.70;;;19.90;56.30;;;;;;5092895;28;20032;-69
2022/01/31 06:35:03;;;;;;;1.33;0.57;;;19.90;56.30;;;;;;5091624;28;20028;-69
2022/01/31 06:37:29;;;;;;;2.17;0.75;;;20.00;56.40;;;;;;5092675;28;20035;-69
2022/01/31 06:39:54;;;;;;;2.72;0.85;;;20.00;56.40;;;;;;5091103;28;20020;-69
2022/01/31 06:42:20;;;;;;;1.58;1.00;;;20.00;56.40;;;;;;5091616;28;20103;-69
2022/01/31 06:44:46;;;;;;;2.80;0.82;;;20.00;56.40;;;;;;5091570;28;20024;-69
2022/01/31 06:47:11;;;;;;;4.32;0.80;;;19.90;56.30;;;;;;5092772;28;20402;-70
2022/01/31 06:49:37;;;;;;;2.47;1.13;;;19.90;56.30;;;;;;5092496;28;20031;-70
2022/01/31 06:52:04;;;;;;;1.67;0.65;;;19.90;56.30;;;;;;5092643;28;20035;-70
2022/01/31 06:54:30;;;;;;;2.28;0.75;;;19.90;56.40;;;;;;5092330;28;20050;-69
2022/01/31 06:56:57;;;;;;;2.67;0.80;;;19.90;56.30;;;;;;5092259;28;20454;-70
2022/01/31 06:59:23;;;;;;;2.63;0.80;;;19.90;56.30;;;;;;5078721;28;20074;-69
2022/01/31 07:01:49;;;;;;;1.60;0.90;;;19.90;56.30;;;;;;5071130;28;20025;-69
2022/01/31 07:04:14;;;;;;;1.55;0.65;;;19.90;56.30;;;;;;5072217;28;20020;-69
2022/01/31 07:06:40;;;;;;;2.13;0.85;;;19.90;56.30;;;;;;5079019;28;20030;-69
2022/01/31 07:09:06;;;;;;;1.42;0.88;;;19.90;56.40;;;;;;5090916;28;20025;-69
2022/01/31 07:11:36;;;;;;;2.58;0.98;;;19.90;56.40;;;;;;5091149;28;20398;-69
2022/01/31 07:14:06;;;;;;;2.42;0.75;;;19.90;56.40;;;;;;5091262;28;20023;-69
2022/01/31 07:16:32;;;;;;;2.40;1.02;;;19.90;56.40;;;;;;5092399;28;20020;-69
2022/01/31 07:19:08;;;;;;;1.50;0.73;;;19.90;56.40;;;;;;5091878;28;20039;-69
2022/01/31 07:21:45;;;;;;;3.42;0.57;;;19.90;56.30;;;;;;5088928;28;20485;-69
2022/01/31 07:26:43;;;;;;;0.95;0.50;;;19.90;56.40;;;;;;5082911;28;20123;-69
2022/01/31 07:29:09;;;;;;;1.60;0.60;;;19.90;56.40;;;;;;5082807;28;20060;-69
2022/01/31 07:31:35;;;;;;;1.92;0.80;;;19.90;56.40;;;;;;5076735;28;20052;-69
2022/01/31 07:34:01;;;;;;;3.95;0.77;;;19.90;56.40;;;;;;5087406;28;20306;-70
2022/01/31 07:36:26;;;;;;;2.13;0.90;;;19.90;56.40;;;;;;5076690;28;20474;-69
2022/01/31 07:38:52;;;;;;;1.55;0.70;;;19.90;56.40;;;;;;5082726;28;20062;-69
2022/01/31 07:41:17;;;;;;;1.35;0.63;;;19.90;56.40;;;;;;5085433;28;20028;-69
2022/01/31 07:43:46;;;;;;;1.83;0.80;;;19.90;56.40;;;;;;5074542;28;20463;-69
2022/01/31 07:46:14;;;;;;;2.22;0.90;;;19.90;56.40;;;;;;5088713;28;20017;-69
2022/01/31 07:48:40;;;;;;;2.53;0.88;;;19.90;56.40;;;;;;5078540;28;20012;-69
2022/01/31 07:51:06;;;;;;;2.15;0.65;;;19.90;56.40;;;;;;5079492;28;20031;-70
2022/01/31 07:53:32;;;;;;;1.35;0.70;;;19.90;56.40;;;;;;5087083;28;20054;-69
2022/01/31 07:56:00;;;;;;;1.60;0.80;;;19.90;56.40;;;;;;5074035;28;20082;-69
2022/01/31 07:58:26;;;;;;;1.95;0.90;;;19.90;56.40;;;;;;5085526;28;20031;-69
2022/01/31 08:00:51;;;;;;;4.20;1.20;;;20.00;56.40;;;;;;5079645;28;20020;-69
2022/01/31 08:03:17;;;;;;;2.58;0.90;;;19.90;56.40;;;;;;5079573;28;20082;-69
2022/01/31 08:05:43;;;;;;;1.63;0.73;;;19.90;56.40;;;;;;5086522;28;20532;-70
2022/01/31 08:08:08;;;;;;;1.67;0.80;;;19.90;56.40;;;;;;5091022;28;20445;-69
2022/01/31 08:10:36;;;;;;;2.00;0.80;;;19.90;56.40;;;;;;5087351;28;20024;-69
2022/01/31 08:13:04;;;;;;;1.00;0.57;;;19.90;56.40;;;;;;5084912;28;20025;-69
2022/01/31 08:15:30;;;;;;;1.75;0.80;;;19.90;56.40;;;;;;5079806;28;20120;-69
2022/01/31 08:17:56;;;;;;;2.25;1.05;;;19.90;56.40;;;;;;5090203;28;20020;-69
2022/01/31 08:20:22;;;;;;;3.03;0.90;;;19.90;56.30;;;;;;5078005;28;20031;-69
2022/01/31 08:22:47;;;;;;;2.85;1.10;;;19.90;56.30;;;;;;5085974;28;20538;-69
2022/01/31 08:25:16;;;;;;;1.85;0.85;;;19.90;56.30;;;;;;5086301;28;20099;-69
2022/01/31 08:27:47;;;;;;;2.40;1.00;;;19.90;56.30;;;;;;5078297;28;20021;-69
2022/01/31 08:30:18;;;;;;;3.03;0.90;;;19.90;56.30;;;;;;5089951;28;20039;-69
2022/01/31 08:32:46;;;;;;;2.35;1.20;;;19.90;56.40;;;;;;5081953;28;20390;-69
2022/01/31 08:37:56;;;;;;;1.88;0.80;;;19.90;56.30;;;;;;5090147;28;20039;-69
2022/01/31 08:40:22;;;;;;;1.83;0.80;;;19.90;56.40;;;;;;5077361;28;20017;-69
2022/01/31 08:42:48;;;;;;;1.80;1.08;;;19.90;56.40;;;;;;5085773;28;20024;-69
2022/01/31 08:45:13;;;;;;;2.17;0.88;;;19.90;56.30;;;;;;5084343;28;20072;-69
2022/01/31 08:47:41;;;;;;;2.40;0.75;;;19.90;56.30;;;;;;5078791;28;20031;-69
2022/01/31 08:50:08;;;;;;;4.18;1.33;;;19.90;56.40;;;;;;5089373;28;20024;-68
2022/01/31 08:52:34;;;;;;;2.97;1.00;;;19.90;56.40;;;;;;5087017;28;20103;-69
2022/01/31 08:55:00;;;;;;;3.30;0.95;;;19.90;56.30;;;;;;5092495;28;20111;-73
2022/01/31 08:57:25;;;;;;;2.22;0.98;;;19.90;56.20;;;;;;5095954;28;20044;-72
2022/01/31 08:59:52;;;;;;;3.35;1.08;;;19.90;56.40;;;;;;5080189;28;20383;-72
2022/01/31 09:02:24;;;;;;;2.47;0.98;;;19.90;56.40;;;;;;5083485;28;20020;-72
2022/01/31 09:04:51;;;;;;;;;;;19.90;56.40;;;;;;5085281;28;20020;-72
2022/01/31 09:07:21;;;;;;;1.98;0.98;;;19.90;56.20;;;;;;5083618;28;19919;-72
2022/01/31 09:09:51;;;;;;;2.58;1.08;;;19.90;56.70;;;;;;5083334;28;20012;-72
2022/01/31 09:12:17;;;;;;;3.05;1.15;;;19.90;56.60;;;;;;5083049;28;20123;-72
2022/01/31 09:14:44;;;;;;;4.28;1.13;;;20.00;56.60;;;;;;5079890;28;20104;-73
2022/01/31 09:17:09;;;;;;;2.10;1.02;;;20.00;56.60;;;;;;5081977;28;20028;-72
2022/01/31 09:19:35;;;;;;;3.13;1.00;;;20.00;56.50;;;;;;5079997;28;20027;-72
2022/01/31 09:22:01;;;;;;;2.60;1.00;;;20.00;56.50;;;;;;5081226;28;20387;-72
2022/01/31 09:24:28;;;;;;;4.63;1.00;;;20.10;56.60;;;;;;5084506;28;20023;-72
2022/01/31 09:26:53;;;;;;;5.05;1.58;;;20.10;56.40;;;;;;5085873;28;20067;-71
2022/01/31 09:29:19;;;;;;;2.90;1.20;;;20.10;56.50;;;;;;5082481;28;20475;-72
2022/01/31 09:31:44;;;;;;;2.83;1.08;;;20.20;56.40;;;;;;5086507;28;20024;-72
2022/01/31 09:34:11;;;;;;;5.18;1.02;;;20.20;56.50;;;;;;5082780;28;20039;-72
2022/01/31 09:36:37;;;;;;;4.13;1.23;;;20.20;56.40;;;;;;5079353;28;20059;-72
2022/01/31 09:39:03;;;;;;;4.47;1.27;;;20.20;56.30;;;;;;5080485;28;20052;-72
2022/01/31 09:41:31;;;;;;;4.55;1.10;;;20.20;56.30;;;;;;5084246;28;20020;-72
2022/01/31 09:48:51;;;;;;;3.67;1.50;;;20.30;56.30;;;;;;5079879;28;20478;-72
2022/01/31 09:51:19;;;;;;;2.40;0.80;;;20.30;56.30;;;;;;5082110;28;20028;-73
2022/01/31 09:53:49;;;;;;;2.53;1.00;;;20.40;56.30;;;;;;5081739;28;20103;-72
2022/01/31 09:56:21;;;;;;;2.15;1.08;;;20.40;56.20;;;;;;5081315;28;20049;-78
2022/01/31 09:58:47;;;;;;;3.05;1.50;;;20.40;56.20;;;;;;5084779;28;20020;-81
2022/01/31 10:01:19;;;;;;;2.63;1.17;;;20.40;56.10;;;;;;5084729;28;20391;-80
2022/01/31 10:03:44;;;;;;;2.15;1.20;;;20.40;56.10;;;;;;5083826;28;20027;-81
2022/01/31 10:06:24;;;;;;;2.33;1.23;;;20.40;56.10;;;;;;5084308;28;20024;-79
2022/01/31 10:09:00;;;;;;;3.30;1.15;;;20.50;55.90;;;;;;5080235;28;20027;-82
2022/01/31 10:11:30;;;;;;;2.38;1.15;;;20.50;56.00;;;;;;5082593;28;20040;-73
2022/01/31 10:16:55;;;;;;;2.60;1.23;;;20.50;55.70;;;;;;5078504;28;20027;-73
2022/01/31 10:19:20;;;;;;;2.17;0.98;;;20.50;56.00;;;;;;5081661;28;20033;-73
2022/01/31 10:22:00;;;;;;;3.47;1.02;;;20.50;56.00;;;;;;5080427;28;20052;-73
2022/01/31 10:24:26;;;;;;;2.42;1.17;;;20.60;55.90;;;;;;5086770;28;20027;-73
2022/01/31 10:26:52;;;;;;;4.38;1.20;;;20.50;55.90;;;;;;5081406;28;20070;-73
2022/01/31 10:29:19;;;;;;;2.25;1.00;;;20.60;55.90;;;;;;5081713;28;20044;-73
2022/01/31 10:32:06;;;;;;;3.75;1.17;;;20.60;55.90;;;;;;5080284;28;20024;-72
2022/01/31 10:34:35;;;;;;;2.63;1.00;;;20.60;55.80;;;;;;5082458;28;20036;-73
2022/01/31 10:37:06;;;;;;;3.80;1.00;;;20.60;55.80;;;;;;5083437;28;20028;-73
2022/01/31 10:53:55;;;;;;;3.15;1.48;;;20.70;55.80;;;;;;5082741;28;20024;-74
2022/01/31 10:56:22;;;;;;;3.67;1.25;;;20.70;55.80;;;;;;5079807;28;20111;-75
2022/01/31 10:59:01;;;;;;;2.95;1.23;;;20.70;55.80;;;;;;5071229;28;20039;-74
2022/01/31 11:01:27;;;;;;;3.20;1.27;;;20.70;55.50;;;;;;5069415;28;20376;-70
2022/01/31 11:03:53;;;;;;;3.72;1.17;;;20.70;55.10;;;;;;5082179;28;20027;-70
2022/01/31 11:06:20;;;;;;;2.20;1.00;;;20.70;54.70;;;;;;5078273;28;20005;-72
2022/01/31 11:08:46;;;;;;;3.15;1.17;;;20.60;54.60;;;;;;5071529;28;20020;-70
2022/01/31 11:11:12;;;;;;;4.03;1.00;;;20.50;54.40;;;;;;5078872;28;20383;-71
2022/01/31 11:13:38;;;;;;;4.53;1.15;;;20.50;54.30;;;;;;5081783;28;20043;-72
2022/01/31 11:16:07;;;;;;;2.97;0.90;;;20.40;54.30;;;;;;5076675;28;20111;-76
2022/01/31 11:18:33;;;;;;;3.17;1.00;;;20.40;54.20;;;;;;5086436;28;20024;-68
2022/01/31 11:21:01;;;;;;;3.10;1.05;;;20.40;54.20;;;;;;5077190;28;20008;-76
2022/01/31 11:23:28;;;;;;;4.10;1.02;;;20.30;54.10;;;;;;5082000;28;20017;-70
2022/01/31 11:25:56;;;;;;;4.28;1.30;;;20.30;54.30;;;;;;5082045;28;20035;-70
2022/01/31 11:28:22;;;;;;;2.40;0.85;;;20.30;54.30;;;;;;5081237;28;20510;-69
2022/01/31 11:30:48;;;;;;;3.00;1.10;;;20.30;54.50;;;;;;5080674;28;20421;-69
2022/01/31 11:33:14;;;;;;;3.15;0.80;;;20.40;54.60;;;;;;5072158;28;20040;-68
2022/01/31 11:35:39;;;;;;;2.20;0.90;;;20.40;54.50;;;;;;5062327;28;20024;-69
2022/01/31 11:38:05;;;;;;;2.67;0.93;;;20.40;54.60;;;;;;5076369;28;20035;-69
2022/01/31 11:40:31;;;;;;;3.38;1.27;;;20.40;54.50;;;;;;5081008;28;20025;-69
2022/01/31 11:42:56;;;;;;;2.03;1.17;;;20.40;54.50;;;;;;5081111;28;20073;-70
2022/01/31 11:45:29;;;;;;;2.38;1.23;;;20.40;54.40;;;;;;5085322;28;20118;-71
2022/01/31 11:47:57;;;;;;;4.60;1.30;;;20.50;54.40;;;;;;5079005;28;20097;-71
2022/01/31 11:50:22;;;;;;;3.53;1.10;;;20.50;54.40;;;;;;5086303;28;20028;-69
2022/01/31 11:52:58;;;;;;;2.17;1.17;;;20.50;54.50;;;;;;5083225;28;20089;-70
2022/01/31 11:55:25;;;;;;;2.35;0.90;;;20.50;54.40;;;;;;5062420;28;20542;-74
2022/01/31 11:57:52;;;;;;;2.72;1.30;;;20.50;54.40;;;;;;5062352;28;20020;-74
2022/01/31 12:00:19;;;;;;;2.22;1.15;;;20.60;54.40;;;;;;5090800;28;20069;-74
2022/01/31 12:02:52;;;;;;;3.10;1.17;;;20.60;54.40;;;;;;5085168;28;20425;-73
2022/01/31 12:05:28;;;;;;;5.00;1.30;;;20.60;54.40;;;;;;5087617;28;20016;-74
2022/01/31 12:08:07;;;;;;;4.22;1.40;;;20.60;54.40;;;;;;5088720;28;20024;-73
2022/01/31 12:10:39;;;;;;;3.40;1.30;;;20.70;54.20;;;;;;5083966;28;20024;-74
2022/01/31 12:24:04;;;;;;;3.97;1.15;;;20.70;54.40;;;;;;5052778;28;20017;-80
2022/01/31 12:26:32;;;;;;;2.22;1.00;;;20.70;54.40;;;;;;5056838;28;20035;-79
2022/01/31 12:29:00;;;;;;;2.58;1.20;;;20.70;54.40;;;;;;5061226;28;20055;-79
2022/01/31 12:31:34;;;;;;;2.47;1.00;;;20.70;54.20;;;;;;5047891;28;20135;-80
2022/01/31 12:34:08;;;;;;;4.55;1.30;;;20.80;54.10;;;;;;5056946;28;20607;-79
2022/01/31 12:36:36;;;;;;;2.47;1.10;;;20.80;54.30;;;;;;5039048;28;20032;-79
2022/01/31 12:39:39;;;;;;;2.55;1.10;;;20.80;54.30;;;;;;5056943;28;20032;-70
2022/01/31 12:42:43;;;;;;;3.37;1.10;;;20.80;53.90;;;;;;5060745;28;20033;-71
2022/01/31 12:45:21;;;;;;;3.50;1.08;;;20.80;53.90;;;;;;5061044;28;20295;-71
2022/01/31 12:48:06;;;;;;;2.40;1.20;;;20.80;54.20;;;;;;5062097;28;20024;-71
2022/01/31 12:50:32;;;;;;;2.95;1.10;;;20.80;53.90;;;;;;5063964;28;20071;-71
2022/01/31 12:53:03;;;;;;;2.20;1.20;;;20.80;54.20;;;;;;5030210;28;20024;-71
2022/01/31 12:55:30;;;;;;;3.72;1.00;;;20.80;54.20;;;;;;5055333;28;20032;-71
2022/01/31 12:57:56;;;;;;;2.95;1.63;;;20.80;54.10;;;;;;5058064;28;20036;-71
2022/01/31 13:00:40;;;;;;;2.72;1.17;;;20.80;54.10;;;;;;5072167;28;20036;-71
2022/01/31 13:03:09;;;;;;;2.58;1.20;;;20.90;54.80;;;;;;5077256;28;20020;-70
2022/01/31 13:05:36;;;;;;;3.00;1.20;;;20.80;54.10;;;;;;5086282;28;20037;-71
2022/01/31 13:08:23;;;;;;;3.35;1.40;;;20.90;54.10;;;;;;5087229;28;20025;-69
2022/01/31 13:10:51;;;;;;;5.78;1.63;;;20.90;53.50;;;;;;5088720;28;20024;-68
2022/01/31 13:13:34;;;;;;;7.53;1.90;;;20.80;52.90;;;;;;5081039;28;20058;-69
2022/01/31 13:16:06;;;;;;;7.82;1.70;;;20.70;51.60;;;;;;5063574;28;20372;-68
2022/01/31 13:18:32;;;;;;;;;;;20.50;51.70;;;;;;5073475;28;20410;-69
2022/01/31 13:20:58;;;;;;;8.15;2.45;;;20.40;50.70;;;;;;5075725;28;19904;-68
2022/01/31 13:23:26;;;;;;;7.82;2.25;;;20.10;51.30;;;;;;5064281;28;20021;-69
2022/01/31 13:26:03;;;;;;;8.57;2.40;;;20.00;50.80;;;;;;5066655;28;20166;-69
2022/01/31 13:28:29;;;;;;;8.95;2.17;;;19.80;50.50;;;;;;5079335;28;20053;-69
2022/01/31 13:31:09;;;;;;;9.82;2.78;;;19.70;51.50;;;;;;5080259;28;20503;-69